createdAt,value
2019-04-06T00:01:48.359Z,53.26
2019-04-06T00:04:19.021Z,53.56
2019-04-06T00:06:49.695Z,53.05
2019-04-06T00:09:20.701Z,53.34
2019-04-06T00:11:51.645Z,53.53
2019-04-06T00:14:22.204Z,53.55
2019-04-06T00:16:52.905Z,53.86
2019-04-06T00:19:24.024Z,54.31
2019-04-06T00:21:54.458Z,54.69
2019-04-06T00:24:25.615Z,54.64
2019-04-06T00:26:56.225Z,54.36
2019-04-06T00:29:26.920Z,54.08
2019-04-06T00:32:04.990Z,54.59
2019-04-06T00:34:35.458Z,55.01
2019-04-06T00:37:06.118Z,54.61
2019-04-06T00:39:36.995Z,54.64
2019-04-06T00:42:08.428Z,56.29
2019-04-06T00:44:39.070Z,55.98
2019-04-06T00:47:09.730Z,55.24
2019-04-06T00:49:40.351Z,55.20
2019-04-06T00:52:11.024Z,55.10
2019-04-06T00:54:42.873Z,56.07
2019-04-06T00:57:13.786Z,55.57
2019-04-06T00:59:44.517Z,56.03
2019-04-06T01:02:15.061Z,55.78
2019-04-06T01:04:45.512Z,56.05
2019-04-06T01:07:16.415Z,56.35
2019-04-06T01:09:47.657Z,56.60
2019-04-06T01:12:18.359Z,55.74
2019-04-06T01:14:48.931Z,56.15
2019-04-06T01:17:20.120Z,55.72
2019-04-06T01:19:50.701Z,57.00
2019-04-06T01:22:21.242Z,57.25
2019-04-06T01:24:52.066Z,56.68
2019-04-06T01:27:22.543Z,56.32
2019-04-06T01:29:53.469Z,57.00
2019-04-06T01:32:24.274Z,57.34
2019-04-06T01:34:54.761Z,58.02
2019-04-06T01:37:25.515Z,58.78
2019-04-06T01:39:55.984Z,59.18
2019-04-06T01:42:26.631Z,58.93
2019-04-06T01:44:57.059Z,58.29
2019-04-06T01:47:27.762Z,58.71
2019-04-06T01:49:58.214Z,58.94
2019-04-06T01:52:28.899Z,58.52
2019-04-06T01:54:59.396Z,58.84
2019-04-06T01:57:30.182Z,58.21
2019-04-06T02:00:00.634Z,58.67
2019-04-06T02:02:33.125Z,58.33
2019-04-06T02:05:04.058Z,58.78
2019-04-06T02:07:34.787Z,58.94
2019-04-06T02:10:08.276Z,60.49
2019-04-06T02:12:39.616Z,61.72
2019-04-06T02:15:09.947Z,62.51
2019-04-06T02:17:40.504Z,63.08
2019-04-06T02:20:11.024Z,62.65
2019-04-06T02:22:41.734Z,63.29
2019-04-06T02:25:12.262Z,63.46
2019-04-06T02:27:43.111Z,62.95
2019-04-06T02:30:21.757Z,63.55
2019-04-06T02:33:09.990Z,64.61
2019-04-06T02:35:46.610Z,65.17
2019-04-06T02:38:37.112Z,65.34
2019-04-06T02:41:12.102Z,65.36
2019-04-06T02:43:42.815Z,65.68
2019-04-06T02:46:13.313Z,65.05
2019-04-06T02:48:43.744Z,65.35
2019-04-06T02:51:14.088Z,65.47
2019-04-06T02:53:44.974Z,65.38
2019-04-06T02:56:15.715Z,65.76
2019-04-06T02:58:46.316Z,65.55
2019-04-06T03:01:17.706Z,65.85
2019-04-06T03:03:48.269Z,66.03
2019-04-06T03:06:18.883Z,66.18
2019-04-06T03:08:49.722Z,66.21
2019-04-06T03:11:20.773Z,66.21
2019-04-06T03:13:51.583Z,66.15
2019-04-06T03:16:22.388Z,66.07
2019-04-06T03:18:53.227Z,65.27
2019-04-06T03:21:25.084Z,65.52
2019-04-06T03:23:55.638Z,65.81
2019-04-06T03:26:26.360Z,66.15
2019-04-06T03:28:57.395Z,66.04
2019-04-06T03:31:28.400Z,66.56
2019-04-06T03:33:59.734Z,66.56
2019-04-06T03:36:30.735Z,67.39
2019-04-06T03:39:01.666Z,67.62
2019-04-06T03:41:34.270Z,67.53
2019-04-06T03:44:05.291Z,66.67
2019-04-06T03:46:35.961Z,67.14
2019-04-06T03:49:06.807Z,67.92
2019-04-06T03:51:37.558Z,67.71
2019-04-06T03:54:08.231Z,66.99
2019-04-06T03:56:38.745Z,66.96
2019-04-06T03:59:09.852Z,66.34
2019-04-06T04:01:41.518Z,67.18
2019-04-06T04:04:12.030Z,66.42
2019-04-06T04:06:42.630Z,66.60
2019-04-06T04:09:13.117Z,66.55
2019-04-06T04:11:44.793Z,67.32
2019-04-06T04:14:15.273Z,66.61
2019-04-06T04:16:46.235Z,66.91
2019-04-06T04:19:17.276Z,67.02
2019-04-06T04:21:49.977Z,67.00
2019-04-06T04:24:21.005Z,66.78
2019-04-06T04:26:53.201Z,66.71
2019-04-06T04:29:25.817Z,66.36
2019-04-06T04:31:56.621Z,66.05
2019-04-06T04:34:27.482Z,66.00
2019-04-06T04:36:58.136Z,65.34
2019-04-06T04:39:28.771Z,65.56
2019-04-06T04:41:59.333Z,64.81
2019-04-06T04:44:29.753Z,64.94
2019-04-06T04:47:00.800Z,64.45
2019-04-06T04:49:31.560Z,64.24
2019-04-06T04:52:02.405Z,64.29
2019-04-06T04:54:32.933Z,63.86
2019-04-06T04:57:03.811Z,64.02
2019-04-06T04:59:34.979Z,63.83
2019-04-06T05:02:06.338Z,63.62
2019-04-06T05:04:36.914Z,63.00
2019-04-06T05:07:07.619Z,63.13
2019-04-06T05:09:38.565Z,61.88
2019-04-06T05:12:09.519Z,61.90
2019-04-06T05:15:02.425Z,61.77
2019-04-06T05:17:33.223Z,61.40
2019-04-06T05:20:04.801Z,61.04
2019-04-06T05:22:35.401Z,61.00
2019-04-06T05:25:06.736Z,59.95
2019-04-06T05:27:37.437Z,59.97
2019-04-06T05:30:08.624Z,59.58
2019-04-06T05:32:39.553Z,59.70
2019-04-06T05:35:10.749Z,59.10
2019-04-06T05:37:41.374Z,58.44
2019-04-06T05:40:12.233Z,58.75
2019-04-06T05:42:42.932Z,58.21
2019-04-06T05:45:16.259Z,57.44
2019-04-06T05:47:46.812Z,57.28
2019-04-06T05:50:17.641Z,58.00
2019-04-06T05:52:48.771Z,57.31
2019-04-06T05:55:19.610Z,57.52
2019-04-06T05:57:54.042Z,56.64
2019-04-06T06:00:22.874Z,57.59
2019-04-06T06:02:53.589Z,56.85
2019-04-06T06:05:24.489Z,56.84
2019-04-06T06:07:55.283Z,56.85
2019-04-06T06:10:26.887Z,55.39
2019-04-06T06:12:57.503Z,55.16
2019-04-06T06:15:28.407Z,55.37
2019-04-06T06:17:59.221Z,55.39
2019-04-06T06:20:29.711Z,54.80
2019-04-06T06:23:00.257Z,55.23
2019-04-06T06:25:30.949Z,55.25
2019-04-06T06:28:01.925Z,54.51
2019-04-06T06:30:33.061Z,53.75
2019-04-06T06:33:03.657Z,54.85
2019-04-06T06:35:34.622Z,54.70
2019-04-06T06:38:05.588Z,53.24
2019-04-06T06:40:36.042Z,53.45
2019-04-06T06:43:07.117Z,52.76
2019-04-06T06:45:37.685Z,53.08
2019-04-06T06:48:08.744Z,53.10
2019-04-06T06:50:41.170Z,52.11
2019-04-06T06:53:12.362Z,52.08
2019-04-06T06:55:42.963Z,52.87
2019-04-06T06:58:24.577Z,52.78
2019-04-06T07:00:47.353Z,51.31
2019-04-06T07:03:17.760Z,51.87
2019-04-06T07:05:48.689Z,50.90
2019-04-06T07:08:19.940Z,47.58
2019-04-06T07:10:50.815Z,45.94
2019-04-06T07:13:21.653Z,44.25
2019-04-06T07:15:52.105Z,42.36
2019-04-06T07:18:23.189Z,43.63
2019-04-06T07:20:54.224Z,44.63
2019-04-06T07:23:25.103Z,43.71
2019-04-06T07:25:58.537Z,41.97
2019-04-06T07:28:37.175Z,43.15
2019-04-06T07:31:00.702Z,43.15
2019-04-06T07:33:32.215Z,43.54
2019-04-06T07:36:03.084Z,42.30
2019-04-06T07:38:33.631Z,42.39
2019-04-06T07:41:04.364Z,42.39
2019-04-06T07:43:36.489Z,41.95
2019-04-06T07:46:07.398Z,41.47
2019-04-06T07:48:39.319Z,42.36
2019-04-06T07:51:10.215Z,42.11
2019-04-06T07:53:43.910Z,40.67
2019-04-06T07:56:14.606Z,40.67
2019-04-06T07:58:49.459Z,42.19
2019-04-06T08:01:19.123Z,40.78
2019-04-06T08:03:52.673Z,41.97
2019-04-06T08:06:24.826Z,40.25
2019-04-06T08:08:57.127Z,40.74
2019-04-06T08:11:29.273Z,40.04
2019-04-06T08:14:00.411Z,41.21
2019-04-06T08:16:31.380Z,39.88
2019-04-06T08:19:02.645Z,38.86
2019-04-06T08:21:33.376Z,39.21
2019-04-06T08:24:03.914Z,38.98
2019-04-06T08:26:34.494Z,38.71
2019-04-06T08:29:05.149Z,37.60
2019-04-06T08:31:37.114Z,38.64
2019-04-06T08:34:08.247Z,38.29
2019-04-06T08:36:38.618Z,36.34
2019-04-06T08:39:09.467Z,36.95
2019-04-06T08:41:40.906Z,38.07
2019-04-06T08:44:11.325Z,36.69
2019-04-06T08:46:42.001Z,35.76
2019-04-06T08:49:13.015Z,35.79
2019-04-06T08:51:44.097Z,35.68
2019-04-06T08:54:15.219Z,36.41
2019-04-06T08:56:46.146Z,35.51
2019-04-06T08:59:17.230Z,35.79
2019-04-06T09:01:50.066Z,36.47
2019-04-06T09:04:22.309Z,36.05
2019-04-06T09:06:55.407Z,33.26
2019-04-06T09:09:26.371Z,33.61
2019-04-06T09:11:57.759Z,34.70
2019-04-06T09:14:28.812Z,31.75
2019-04-06T09:17:00.386Z,32.87
2019-04-06T09:19:34.734Z,32.53
2019-04-06T09:22:07.526Z,33.37
2019-04-06T09:24:38.460Z,32.59
2019-04-06T09:27:09.505Z,31.60
2019-04-06T09:29:40.528Z,31.25
2019-04-06T09:32:11.521Z,29.59
2019-04-06T09:34:43.391Z,30.28
2019-04-06T09:37:14.391Z,30.87
2019-04-06T09:39:45.318Z,32.61
2019-04-06T09:42:19.236Z,32.14
2019-04-06T09:44:55.116Z,31.49
2019-04-06T09:47:44.551Z,30.33
2019-04-06T09:50:34.275Z,32.40
2019-04-06T09:53:13.260Z,28.55
2019-04-06T09:55:49.559Z,29.60
2019-04-06T09:58:34.649Z,30.08
2019-04-06T10:01:12.900Z,27.98
2019-04-06T10:04:01.324Z,28.71
2019-04-06T10:06:34.320Z,30.39
2019-04-06T10:09:13.032Z,30.62
2019-04-06T10:11:46.251Z,30.57
2019-04-06T10:14:35.732Z,29.42
2019-04-06T10:17:25.112Z,30.82
2019-04-06T10:20:07.386Z,29.45
2019-04-06T10:22:42.976Z,31.01
2019-04-06T10:25:18.636Z,32.00
2019-04-06T10:28:08.638Z,31.11
2019-04-06T10:30:57.881Z,32.59
2019-04-06T10:33:37.128Z,31.10
2019-04-06T10:36:12.389Z,31.80
2019-04-06T10:39:01.442Z,29.63
2019-04-06T10:41:48.741Z,28.39
2019-04-06T10:44:40.084Z,29.48
2019-04-06T10:47:13.053Z,31.86
2019-04-06T10:50:02.062Z,30.92
2019-04-06T10:52:54.788Z,31.82
2019-04-06T10:55:46.420Z,33.95
2019-04-06T10:58:28.886Z,32.23
2019-04-06T11:01:02.178Z,31.21
2019-04-06T11:03:44.195Z,32.47
2019-04-06T11:06:22.924Z,31.05
2019-04-06T11:09:12.358Z,30.53
2019-04-06T11:12:00.589Z,29.79
2019-04-06T11:14:32.954Z,28.53
2019-04-06T11:17:05.539Z,29.54
2019-04-06T11:19:45.296Z,28.37
2019-04-06T11:22:34.057Z,29.28
2019-04-06T11:25:11.311Z,30.33
2019-04-06T11:27:58.527Z,28.98
2019-04-06T11:30:47.227Z,28.44
2019-04-06T11:33:38.626Z,28.04
2019-04-06T11:36:11.284Z,28.93
2019-04-06T11:38:59.268Z,27.71
2019-04-06T11:41:40.934Z,28.71
2019-04-06T11:44:22.805Z,29.12
2019-04-06T11:46:57.010Z,28.74
2019-04-06T11:49:36.752Z,29.58
2019-04-06T11:52:21.680Z,30.50
2019-04-06T11:54:54.658Z,30.20
2019-04-06T11:57:35.171Z,30.34
2019-04-06T12:00:27.539Z,30.73
2019-04-06T12:03:16.397Z,31.15
2019-04-06T12:05:49.065Z,30.52
2019-04-06T12:08:38.450Z,28.95
2019-04-06T12:11:17.322Z,29.64
2019-04-06T12:13:50.066Z,29.28
2019-04-06T12:16:23.583Z,30.99
2019-04-06T12:19:02.200Z,30.24
2019-04-06T12:21:50.488Z,29.43
2019-04-06T12:24:25.845Z,31.01
2019-04-06T12:27:14.843Z,30.31
2019-04-06T12:29:48.690Z,30.02
2019-04-06T12:32:36.099Z,30.48
2019-04-06T12:35:24.616Z,30.07
2019-04-06T12:38:03.684Z,30.77
2019-04-06T12:40:42.472Z,29.46
2019-04-06T12:43:32.871Z,30.19
2019-04-06T12:46:14.460Z,29.20
2019-04-06T12:48:52.728Z,30.76
2019-04-06T12:51:25.712Z,29.30
2019-04-06T12:54:07.678Z,30.18
2019-04-06T12:56:40.891Z,29.63
2019-04-06T12:59:19.635Z,29.84
2019-04-06T13:02:07.565Z,29.58
2019-04-06T13:04:40.539Z,30.16
2019-04-06T13:07:31.411Z,29.60
2019-04-06T13:10:22.204Z,29.90
2019-04-06T13:13:03.988Z,28.97
2019-04-06T13:15:41.327Z,28.96
2019-04-06T13:18:20.547Z,29.05
2019-04-06T13:20:59.881Z,28.69
2019-04-06T13:23:44.514Z,28.29
2019-04-06T13:26:22.572Z,28.01
2019-04-06T13:29:11.518Z,28.62
2019-04-06T13:31:49.983Z,29.09
2019-04-06T13:34:31.564Z,28.29
2019-04-06T13:37:07.602Z,29.15
2019-04-06T13:39:40.848Z,29.27
2019-04-06T13:42:31.682Z,28.69
2019-04-06T13:45:19.551Z,29.59
2019-04-06T13:48:07.842Z,29.77
2019-04-06T13:50:53.709Z,28.31
2019-04-06T13:53:30.306Z,30.48
2019-04-06T13:56:06.182Z,30.52
2019-04-06T13:58:41.391Z,29.96
2019-04-06T14:01:19.776Z,27.00
2019-04-06T14:04:05.044Z,28.72
2019-04-06T14:06:44.131Z,29.03
2019-04-06T14:09:20.228Z,28.81
2019-04-06T14:12:04.570Z,30.06
2019-04-06T14:14:49.467Z,28.99
2019-04-06T14:17:34.227Z,30.50
2019-04-06T14:20:14.817Z,30.44
2019-04-06T14:22:48.992Z,29.82
2019-04-06T14:25:26.057Z,30.25
2019-04-06T14:28:10.961Z,30.15
2019-04-06T14:30:43.458Z,30.04
2019-04-06T14:33:19.623Z,30.03
2019-04-06T14:35:52.264Z,30.24
2019-04-06T14:38:25.395Z,30.26
2019-04-06T14:41:03.939Z,30.56
2019-04-06T14:43:53.616Z,30.40
2019-04-06T14:46:34.944Z,30.36
2019-04-06T14:49:29.463Z,30.52
2019-04-06T14:51:56.664Z,30.49
2019-04-06T14:54:48.115Z,31.16
2019-04-06T14:57:24.164Z,30.41
2019-04-06T14:59:57.079Z,30.89
2019-04-06T15:02:44.773Z,30.96
2019-04-06T15:05:23.479Z,30.97
2019-04-06T15:08:01.830Z,30.86
2019-04-06T15:10:35.674Z,30.50
2019-04-06T15:13:12.145Z,30.72
2019-04-06T15:15:44.565Z,30.35
2019-04-06T15:18:33.327Z,30.09
2019-04-06T15:21:07.858Z,30.01
2019-04-06T15:23:56.537Z,29.78
2019-04-06T15:26:38.107Z,29.75
2019-04-06T15:29:29.641Z,30.57
2019-04-06T15:32:17.061Z,29.43
2019-04-06T15:34:55.639Z,29.57
2019-04-06T15:37:31.116Z,29.44
2019-04-06T15:40:12.575Z,29.45
2019-04-06T15:42:45.114Z,30.33
2019-04-06T15:45:20.364Z,29.95
2019-04-06T15:47:52.905Z,30.80
2019-04-06T15:50:28.379Z,31.53
2019-04-06T15:53:07.262Z,31.84
2019-04-06T15:55:39.939Z,32.04
2019-04-06T15:58:15.812Z,32.34
2019-04-06T16:00:51.038Z,32.25
2019-04-06T16:03:23.626Z,32.04
2019-04-06T16:06:00.010Z,31.85
2019-04-06T16:08:35.943Z,32.53
2019-04-06T16:11:22.025Z,32.58
2019-04-06T16:13:59.318Z,32.75
2019-04-06T16:16:32.247Z,33.48
2019-04-06T16:19:24.002Z,33.14
2019-04-06T16:21:56.554Z,33.36
2019-04-06T16:24:29.135Z,32.98
2019-04-06T16:27:09.555Z,33.19
2019-04-06T16:29:49.313Z,33.40
2019-04-06T16:32:31.439Z,34.07
2019-04-06T16:34:57.161Z,33.49
2019-04-06T16:37:36.202Z,33.63
2019-04-06T16:40:18.620Z,33.90
2019-04-06T16:42:52.385Z,33.95
2019-04-06T16:45:27.590Z,33.84
2019-04-06T16:48:16.534Z,34.42
2019-04-06T16:50:55.660Z,34.51
2019-04-06T16:53:44.106Z,34.56
2019-04-06T16:56:16.618Z,33.92
2019-04-06T16:58:52.675Z,35.10
2019-04-06T17:01:25.341Z,35.52
2019-04-06T17:04:13.544Z,34.92
2019-04-06T17:07:03.196Z,35.11
2019-04-06T17:09:36.506Z,35.26
2019-04-06T17:12:13.338Z,36.17
2019-04-06T17:15:04.794Z,36.04
2019-04-06T17:17:45.847Z,37.10
2019-04-06T17:20:21.666Z,36.89
2019-04-06T17:23:00.609Z,37.48
2019-04-06T17:25:41.895Z,38.21
2019-04-06T17:28:17.304Z,38.60
2019-04-06T17:30:49.993Z,38.68
2019-04-06T17:33:40.915Z,39.35
2019-04-06T17:36:26.025Z,38.99
2019-04-06T17:39:10.708Z,39.51
2019-04-06T17:41:46.522Z,39.57
2019-04-06T17:44:31.230Z,39.26
2019-04-06T17:47:21.247Z,39.61
2019-04-06T17:50:10.207Z,40.22
2019-04-06T17:52:51.621Z,39.95
2019-04-06T17:55:42.663Z,40.42
2019-04-06T17:58:16.289Z,40.23
2019-04-06T18:00:50.483Z,39.75
2019-04-06T18:03:26.356Z,40.25
2019-04-06T18:06:06.690Z,41.00
2019-04-06T18:08:55.953Z,41.24
2019-04-06T18:11:32.707Z,41.75
2019-04-06T18:14:05.580Z,42.23
2019-04-06T18:16:36.563Z,42.23
2019-04-06T18:19:07.686Z,42.16
2019-04-06T18:21:39.156Z,42.29
2019-04-06T18:24:11.252Z,42.56
2019-04-06T18:26:42.979Z,43.10
2019-04-06T18:29:13.939Z,42.62
2019-04-06T18:31:56.084Z,42.62
2019-04-06T18:34:27.346Z,42.84
2019-04-06T18:37:04.515Z,43.02
2019-04-06T18:39:36.176Z,43.20
2019-04-06T18:42:07.463Z,43.76
2019-04-06T18:44:41.974Z,44.06
2019-04-06T18:47:12.978Z,45.55
2019-04-06T18:49:44.303Z,46.21
2019-04-06T18:52:16.896Z,46.08
2019-04-06T18:54:48.262Z,46.03
2019-04-06T18:57:22.943Z,46.52
2019-04-06T18:59:53.809Z,46.75
2019-04-06T19:02:24.750Z,46.77
2019-04-06T19:04:57.272Z,46.96
2019-04-06T19:07:28.206Z,46.97
2019-04-06T19:10:00.815Z,47.33
2019-04-06T19:12:33.546Z,47.29
2019-04-06T19:15:06.968Z,46.80
2019-04-06T19:17:39.574Z,46.75
2019-04-06T19:20:13.079Z,47.04
2019-04-06T19:22:45.375Z,46.91
2019-04-06T19:25:16.105Z,47.85
2019-04-06T19:27:47.714Z,47.68
2019-04-06T19:30:19.691Z,48.19
2019-04-06T19:32:52.740Z,48.44
2019-04-06T19:35:25.903Z,48.73
2019-04-06T19:37:57.695Z,48.52
2019-04-06T19:40:29.302Z,48.08
2019-04-06T19:43:01.055Z,48.44
2019-04-06T19:45:32.892Z,48.36
2019-04-06T19:48:04.958Z,48.82
2019-04-06T19:50:37.496Z,49.36
2019-04-06T19:53:08.901Z,49.34
2019-04-06T19:55:42.470Z,49.62
2019-04-06T19:58:14.211Z,49.70
2019-04-06T20:00:46.961Z,49.66
2019-04-06T20:03:19.145Z,49.57
2019-04-06T20:05:50.421Z,50.07
2019-04-06T20:08:23.196Z,50.47
2019-04-06T20:10:54.380Z,50.78
2019-04-06T20:13:28.246Z,50.79
2019-04-06T20:16:00.836Z,50.53
2019-04-06T20:18:32.464Z,50.38
2019-04-06T20:21:03.839Z,50.79
2019-04-06T20:23:34.876Z,50.84
2019-04-06T20:26:06.280Z,50.40
2019-04-06T20:28:37.503Z,50.91
2019-04-06T20:31:10.643Z,51.52
2019-04-06T20:33:50.174Z,51.93
2019-04-06T20:36:14.994Z,52.05
2019-04-06T20:38:46.361Z,52.41
2019-04-06T20:41:18.349Z,52.86
2019-04-06T20:43:49.455Z,53.22
2019-04-06T20:46:22.314Z,53.37
2019-04-06T20:48:53.894Z,53.67
2019-04-06T20:51:25.407Z,54.10
2019-04-06T20:53:58.707Z,54.09
2019-04-06T20:56:30.471Z,54.18
2019-04-06T20:59:03.186Z,53.85
2019-04-06T21:01:34.703Z,53.53
2019-04-06T21:04:05.455Z,54.23
2019-04-06T21:06:37.727Z,53.52
2019-04-06T21:09:14.386Z,53.45
2019-04-06T21:11:46.901Z,53.68
2019-04-06T21:14:18.063Z,54.01
2019-04-06T21:16:51.596Z,54.51
2019-04-06T21:19:22.601Z,54.76
2019-04-06T21:21:54.530Z,54.60
2019-04-06T21:24:28.327Z,54.25
2019-04-06T21:27:00.592Z,54.45
2019-04-06T21:29:32.491Z,54.56
2019-04-06T21:32:03.419Z,54.90
2019-04-06T21:34:35.220Z,55.08
2019-04-06T21:37:06.304Z,55.60
2019-04-06T21:39:41.702Z,56.00
2019-04-06T21:42:12.933Z,56.59
2019-04-06T21:44:43.683Z,56.50
2019-04-06T21:47:14.422Z,56.39
2019-04-06T21:49:45.459Z,56.33
2019-04-06T21:52:18.100Z,56.19
2019-04-06T21:54:49.766Z,56.45
2019-04-06T21:57:21.840Z,56.73
2019-04-06T21:59:53.227Z,56.69
2019-04-06T22:02:24.209Z,56.75
2019-04-06T22:04:55.174Z,57.04
2019-04-06T22:07:25.878Z,56.82
2019-04-06T22:09:57.066Z,56.64
2019-04-06T22:12:28.413Z,56.56
2019-04-06T22:14:59.936Z,56.74
2019-04-06T22:17:32.935Z,56.77
2019-04-06T22:20:04.152Z,57.12
2019-04-06T22:22:35.561Z,57.00
2019-04-06T22:25:06.571Z,57.41
2019-04-06T22:27:37.426Z,57.54
2019-04-06T22:30:10.246Z,57.78
2019-04-06T22:32:41.439Z,57.66
2019-04-06T22:35:12.548Z,57.65
2019-04-06T22:37:46.505Z,57.66
2019-04-06T22:40:18.055Z,57.19
2019-04-06T22:42:49.124Z,56.95
2019-04-06T22:45:21.506Z,56.97
2019-04-06T22:47:52.239Z,57.92
2019-04-06T22:50:23.407Z,58.49
2019-04-06T22:52:54.407Z,58.81
2019-04-06T22:55:25.530Z,58.92
2019-04-06T22:57:56.972Z,58.79
2019-04-06T23:00:32.547Z,58.82
2019-04-06T23:03:05.438Z,58.94
2019-04-06T23:05:44.094Z,58.92
2019-04-06T23:08:15.843Z,58.82
2019-04-06T23:10:47.598Z,58.76
2019-04-06T23:13:18.754Z,58.40
2019-04-06T23:15:50.897Z,58.36
2019-04-06T23:18:23.037Z,58.25
2019-04-06T23:20:53.883Z,58.37
2019-04-06T23:23:25.728Z,58.53
2019-04-06T23:25:56.639Z,58.57
2019-04-06T23:28:27.549Z,58.67
2019-04-06T23:30:58.668Z,58.88
2019-04-06T23:33:30.291Z,59.29
2019-04-06T23:36:01.212Z,59.49
2019-04-06T23:38:31.952Z,59.46
2019-04-06T23:41:02.666Z,59.40
2019-04-06T23:43:33.751Z,59.77
2019-04-06T23:46:04.302Z,60.42
2019-04-06T23:48:36.355Z,60.82
2019-04-06T23:51:08.780Z,61.65
2019-04-06T23:53:39.883Z,62.04
2019-04-06T23:56:10.858Z,62.00
2019-04-06T23:58:43.353Z,62.53
